Weather at Mitzpe Ramon Airfield

Public forecast

Using degrees Celsius for public forecast. Weather courtesy of forecast.io.

Closest aviation weather report (METAR) to Mitzpe Ramon Airfield

Closest report is El Arish International Airport, 56.2 nm (104.1 km) WNW.

2024/06/15 16:00 (retrieved 1 hour ago)

HEAR 151600Z 36007KT CAVOK 32/21 Q1005 NOSIG

Closest aviation forecast (TAF) to Mitzpe Ramon Airfield

Forecast is more than 12 hours old.

Closest forecast is El Jora Airport, 42.4 nm (78.4 km) NW.

2024/06/13 18:00 (retrieved 2 days ago)

TAF HEGR 131700Z 1318/1424 35006KT 9999 FEW025 TEMPO 1400/1406 VRB03KT 3000 BR